LCLKHEAX

Guest
Details From LCLK - Larnaca
To HEAX - ALEXANDRIA INTL
Flight Number -
Tags generated
Created
Modified
Stats Distance 299 nm / 554 km
Max Altitude 34,000 ft / 10,363 m
Waypoints 6
Social Downloads 2
Likes 0
Share VATSIM

Download

Looking for another format? Having issues loading an existing format? Contact us
Advertisement - Login to hide

Notes

Basic altitude profile: - Ascent Rate: 2500ft/min - Ascent Speed: 250kts - Cruise Altitude: 35000ft - Cruise Speed: 420kts - Descent Rate: 1500ft/min - Descent Speed: 250kts Options: - Use NATs: yes - Use PACOTS: yes - Use low airways: no - Use high airways: yes

Route

LCLK APLON UA28 RASDA W725 LABNA HEAX

ID Type Via Altitude Latitude Longitude Leg Dist Tot Dist Heading (true) Name
O LCLK APT - 0 ft / 0 m 34.87512˚ 33.62483˚ - 0 nm - Larnaca
APLON FIX - 34,000 ft / 10,363 m 33.86667˚ 32.06667˚ 98 nm 98 nm 232° / 231° -
GIPAS FIX UA28 (AWY-HI) 34,000 ft / 10,363 m 33.69229˚ 31.81071˚ 16 nm 114 nm 231° / 231° -
RASDA FIX UA28 (AWY-HI) 26,500 ft / 8,077 m 33.10000˚ 30.95000˚ 55 nm 170 nm 231° / 230° -
LABNA FIX W725 (AWY-HI) 14,100 ft / 4,298 m 32.33222˚ 30.27000˚ 57 nm 228 nm 217° / 217° -
O HEAX APT - 0 ft / 0 m 31.18372˚ 29.94760˚ 70 nm 299 nm 194° / 193° ALEXANDRIA INTL

Altitude Profile

Advertisement - Login to hide

Weather


0- 5 10 15 20 25 30 35+ Temperature / ° C

Clouds and Precipitation
Forecast for 2017-12-11 18:00 UTC. Updated 2 hours ago

Ground ~20,000 ft ~40,000 ft Winds

LCLK

Details ICAO LCLK (LCA)
Name Larnaca
Region Cyprus
Timezone Asia/Nicosia (UTC+2.0)
Stats Elevation 8 ft / 2 m (AMSL)
Location 34.875115° 33.624832°
Runways 1
Magnetic Variation 4.990° E

METAR

LCLK 111830Z 35005KT CAVOK 14/12 Q1025 NOSIG

Decode

TAF

TAF LCLK 111730Z 1118/1218 36009KT 9999 FEW020 BECMG 1205/1208 06013KT

Decode

Departure Runways

ID Width Length Bearing (true) Bearing (mag) Surface Threshold Offset Overrun Length
04 148 ft / 45 m 9,771 ft / 2,978 m 45.15° 40.16° Asphalt 0 ft / 0 m 210 ft / 64 m
22 148 ft / 45 m 9,771 ft / 2,978 m 225.17° 220.18° Asphalt 575 ft / 175 m 0 ft / 0 m

HEAX

Details ICAO HEAX (ALY)
Name ALEXANDRIA INTL
Region Egypt
Timezone Africa/Cairo (UTC+2.0)
Stats Elevation -6 ft / -2 m (AMSL)
Location 31.183715° 29.947602°
Runways 2
Magnetic Variation 4.419° E

METAR

HEAX 111800Z 05006KT CAVOK 17/14 Q1021 NOSIG

Decode

TAF

Not found

Destination Runways

ID Width Length Bearing (true) Bearing (mag) Surface Threshold Offset Overrun Length
04 148 ft / 45 m 7,225 ft / 2,202 m 44.92° 40.50° Asphalt 0 ft / 0 m 230 ft / 70 m
18 98 ft / 30 m 5,927 ft / 1,807 m 179.99° 175.57° Asphalt 0 ft / 0 m 198 ft / 60 m
22 148 ft / 45 m 7,225 ft / 2,202 m 224.93° 220.51° Asphalt 0 ft / 0 m 268 ft / 82 m
36 98 ft / 30 m 5,927 ft / 1,807 m 359.99° 355.57° Asphalt 0 ft / 0 m 375 ft / 114 m